sensor_id;sensor_type;location;lat;lon;timestamp;P1;durP1;ratioP1;P2;durP2;ratioP2
9080;SDS011;13509;50.760;6.080;2022-12-18T00:02:00;5.38;;;2.85;;
9080;SDS011;13509;50.760;6.080;2022-12-18T00:04:29;5.57;;;2.92;;
9080;SDS011;13509;50.760;6.080;2022-12-18T00:06:57;4.35;;;2.70;;
9080;SDS011;13509;50.760;6.080;2022-12-18T00:09:26;4.85;;;2.63;;
9080;SDS011;13509;50.760;6.080;2022-12-18T00:12:05;5.07;;;2.50;;
9080;SDS011;13509;50.760;6.080;2022-12-18T00:14:40;14.30;;;7.65;;
9080;SDS011;13509;50.760;6.080;2022-12-18T00:17:10;21.70;;;11.32;;
9080;SDS011;13509;50.760;6.080;2022-12-18T00:19:38;8.80;;;4.88;;
9080;SDS011;13509;50.760;6.080;2022-12-18T00:22:06;9.38;;;3.85;;
9080;SDS011;13509;50.760;6.080;2022-12-18T00:24:34;5.38;;;3.22;;
9080;SDS011;13509;50.760;6.080;2022-12-18T00:27:03;5.03;;;3.00;;
9080;SDS011;13509;50.760;6.080;2022-12-18T00:29:31;5.43;;;2.97;;
9080;SDS011;13509;50.760;6.080;2022-12-18T00:31:59;3.42;;;2.00;;
9080;SDS011;13509;50.760;6.080;2022-12-18T00:34:29;2.78;;;1.73;;
9080;SDS011;13509;50.760;6.080;2022-12-18T00:36:57;3.20;;;1.90;;
9080;SDS011;13509;50.760;6.080;2022-12-18T00:39:25;1.95;;;1.40;;
9080;SDS011;13509;50.760;6.080;2022-12-18T00:41:53;3.28;;;1.75;;
9080;SDS011;13509;50.760;6.080;2022-12-18T00:44:39;1.58;;;1.42;;
9080;SDS011;13509;50.760;6.080;2022-12-18T00:47:07;1.58;;;1.48;;
9080;SDS011;13509;50.760;6.080;2022-12-18T00:49:36;2.10;;;1.60;;
9080;SDS011;13509;50.760;6.080;2022-12-18T00:52:05;2.65;;;1.70;;
9080;SDS011;13509;50.760;6.080;2022-12-18T00:54:33;3.35;;;1.60;;
9080;SDS011;13509;50.760;6.080;2022-12-18T00:57:01;1.73;;;1.45;;
9080;SDS011;13509;50.760;6.080;2022-12-18T00:59:29;2.80;;;1.27;;
9080;SDS011;13509;50.760;6.080;2022-12-18T01:01:57;2.80;;;1.58;;
9080;SDS011;13509;50.760;6.080;2022-12-18T01:04:26;2.45;;;1.50;;
9080;SDS011;13509;50.760;6.080;2022-12-18T01:06:55;2.42;;;1.50;;
9080;SDS011;13509;50.760;6.080;2022-12-18T01:09:23;1.88;;;1.30;;
9080;SDS011;13509;50.760;6.080;2022-12-18T01:11:52;1.42;;;1.05;;
9080;SDS011;13509;50.760;6.080;2022-12-18T01:14:20;1.90;;;1.40;;
9080;SDS011;13509;50.760;6.080;2022-12-18T01:16:48;2.55;;;1.40;;
9080;SDS011;13509;50.760;6.080;2022-12-18T01:19:16;4.00;;;1.77;;
9080;SDS011;13509;50.760;6.080;2022-12-18T01:21:44;3.55;;;1.42;;
9080;SDS011;13509;50.760;6.080;2022-12-18T01:24:14;1.77;;;1.17;;
9080;SDS011;13509;50.760;6.080;2022-12-18T01:26:42;2.50;;;1.52;;
9080;SDS011;13509;50.760;6.080;2022-12-18T01:29:10;3.63;;;1.88;;
9080;SDS011;13509;50.760;6.080;2022-12-18T01:31:38;4.88;;;2.15;;
9080;SDS011;13509;50.760;6.080;2022-12-18T01:34:07;4.15;;;2.00;;
9080;SDS011;13509;50.760;6.080;2022-12-18T01:36:36;3.25;;;1.90;;
9080;SDS011;13509;50.760;6.080;2022-12-18T01:39:06;1.65;;;1.35;;
9080;SDS011;13509;50.760;6.080;2022-12-18T01:41:36;2.15;;;1.42;;
9080;SDS011;13509;50.760;6.080;2022-12-18T01:47:08;1.73;;;1.30;;
9080;SDS011;13509;50.760;6.080;2022-12-18T01:49:37;3.45;;;1.23;;
9080;SDS011;13509;50.760;6.080;2022-12-18T01:52:05;1.48;;;1.38;;
9080;SDS011;13509;50.760;6.080;2022-12-18T01:54:33;2.17;;;1.60;;
9080;SDS011;13509;50.760;6.080;2022-12-18T01:57:03;1.50;;;1.20;;
9080;SDS011;13509;50.760;6.080;2022-12-18T01:59:31;1.42;;;1.25;;
9080;SDS011;13509;50.760;6.080;2022-12-18T02:02:00;1.95;;;1.48;;
9080;SDS011;13509;50.760;6.080;2022-12-18T02:04:29;2.75;;;1.70;;
9080;SDS011;13509;50.760;6.080;2022-12-18T02:06:59;2.58;;;1.60;;
9080;SDS011;13509;50.760;6.080;2022-12-18T02:09:31;1.58;;;1.45;;
9080;SDS011;13509;50.760;6.080;2022-12-18T02:12:04;3.25;;;1.55;;
9080;SDS011;13509;50.760;6.080;2022-12-18T02:14:34;1.77;;;1.45;;
9080;SDS011;13509;50.760;6.080;2022-12-18T02:17:06;2.58;;;1.52;;
9080;SDS011;13509;50.760;6.080;2022-12-18T02:19:39;2.30;;;1.50;;
9080;SDS011;13509;50.760;6.080;2022-12-18T02:22:14;5.82;;;1.88;;
9080;SDS011;13509;50.760;6.080;2022-12-18T02:24:47;2.15;;;1.60;;
9080;SDS011;13509;50.760;6.080;2022-12-18T02:27:19;2.75;;;1.60;;
9080;SDS011;13509;50.760;6.080;2022-12-18T02:29:49;1.88;;;1.70;;
9080;SDS011;13509;50.760;6.080;2022-12-18T02:32:25;2.97;;;1.73;;
9080;SDS011;13509;50.760;6.080;2022-12-18T02:34:55;3.20;;;1.92;;
9080;SDS011;13509;50.760;6.080;2022-12-18T02:37:24;2.55;;;1.88;;
9080;SDS011;13509;50.760;6.080;2022-12-18T02:39:54;2.60;;;2.03;;
9080;SDS011;13509;50.760;6.080;2022-12-18T02:42:25;3.30;;;2.15;;
9080;SDS011;13509;50.760;6.080;2022-12-18T02:44:53;3.30;;;2.28;;
9080;SDS011;13509;50.760;6.080;2022-12-18T02:47:24;3.65;;;2.10;;
9080;SDS011;13509;50.760;6.080;2022-12-18T02:49:53;5.57;;;2.30;;
9080;SDS011;13509;50.760;6.080;2022-12-18T02:52:25;3.92;;;2.13;;
9080;SDS011;13509;50.760;6.080;2022-12-18T02:54:56;4.20;;;2.38;;
9080;SDS011;13509;50.760;6.080;2022-12-18T02:57:29;3.05;;;2.00;;
9080;SDS011;13509;50.760;6.080;2022-12-18T03:00:02;3.25;;;2.22;;
9080;SDS011;13509;50.760;6.080;2022-12-18T03:02:32;4.35;;;2.45;;
9080;SDS011;13509;50.760;6.080;2022-12-18T03:05:04;4.53;;;2.80;;
9080;SDS011;13509;50.760;6.080;2022-12-18T03:07:37;3.55;;;2.25;;
9080;SDS011;13509;50.760;6.080;2022-12-18T03:10:07;3.50;;;1.88;;
9080;SDS011;13509;50.760;6.080;2022-12-18T03:12:38;3.20;;;2.00;;
9080;SDS011;13509;50.760;6.080;2022-12-18T03:15:08;4.20;;;2.08;;
9080;SDS011;13509;50.760;6.080;2022-12-18T03:17:44;5.22;;;2.15;;
9080;SDS011;13509;50.760;6.080;2022-12-18T03:20:14;4.30;;;1.90;;
9080;SDS011;13509;50.760;6.080;2022-12-18T03:22:43;3.60;;;2.00;;
9080;SDS011;13509;50.760;6.080;2022-12-18T03:25:13;4.97;;;2.40;;
9080;SDS011;13509;50.760;6.080;2022-12-18T03:27:43;3.00;;;2.20;;
9080;SDS011;13509;50.760;6.080;2022-12-18T03:30:14;4.60;;;2.30;;
9080;SDS011;13509;50.760;6.080;2022-12-18T03:32:44;3.92;;;2.60;;
9080;SDS011;13509;50.760;6.080;2022-12-18T03:35:16;6.43;;;2.38;;
9080;SDS011;13509;50.760;6.080;2022-12-18T03:37:46;6.10;;;2.60;;
9080;SDS011;13509;50.760;6.080;2022-12-18T03:40:14;4.03;;;2.78;;
9080;SDS011;13509;50.760;6.080;2022-12-18T03:42:45;5.03;;;2.58;;
9080;SDS011;13509;50.760;6.080;2022-12-18T03:45:18;6.05;;;2.67;;
9080;SDS011;13509;50.760;6.080;2022-12-18T03:47:50;6.20;;;3.03;;
9080;SDS011;13509;50.760;6.080;2022-12-18T03:50:21;4.95;;;2.58;;
9080;SDS011;13509;50.760;6.080;2022-12-18T03:52:55;4.68;;;2.63;;
9080;SDS011;13509;50.760;6.080;2022-12-18T03:55:25;3.13;;;2.80;;
9080;SDS011;13509;50.760;6.080;2022-12-18T03:57:55;4.60;;;2.83;;
9080;SDS011;13509;50.760;6.080;2022-12-18T04:00:24;6.65;;;2.95;;
9080;SDS011;13509;50.760;6.080;2022-12-18T04:02:53;3.85;;;2.50;;
9080;SDS011;13509;50.760;6.080;2022-12-18T04:05:22;6.28;;;3.03;;
9080;SDS011;13509;50.760;6.080;2022-12-18T04:07:52;5.10;;;2.45;;
9080;SDS011;13509;50.760;6.080;2022-12-18T04:10:21;3.65;;;2.40;;
9080;SDS011;13509;50.760;6.080;2022-12-18T04:12:49;3.30;;;2.40;;
9080;SDS011;13509;50.760;6.080;2022-12-18T04:15:18;4.25;;;2.60;;
9080;SDS011;13509;50.760;6.080;2022-12-18T04:17:47;5.60;;;2.55;;
9080;SDS011;13509;50.760;6.080;2022-12-18T04:20:16;4.20;;;2.30;;
9080;SDS011;13509;50.760;6.080;2022-12-18T04:22:44;2.78;;;2.10;;
9080;SDS011;13509;50.760;6.080;2022-12-18T04:25:13;4.43;;;2.67;;
9080;SDS011;13509;50.760;6.080;2022-12-18T04:27:41;4.57;;;2.90;;
9080;SDS011;13509;50.760;6.080;2022-12-18T04:30:09;4.85;;;2.40;;
9080;SDS011;13509;50.760;6.080;2022-12-18T04:32:39;2.92;;;2.08;;
9080;SDS011;13509;50.760;6.080;2022-12-18T04:35:12;4.70;;;1.95;;
9080;SDS011;13509;50.760;6.080;2022-12-18T04:37:41;2.63;;;2.13;;
9080;SDS011;13509;50.760;6.080;2022-12-18T04:40:09;4.32;;;2.15;;
9080;SDS011;13509;50.760;6.080;2022-12-18T04:42:38;4.32;;;2.38;;
9080;SDS011;13509;50.760;6.080;2022-12-18T04:45:07;3.03;;;2.10;;
9080;SDS011;13509;50.760;6.080;2022-12-18T04:47:35;3.55;;;1.83;;
9080;SDS011;13509;50.760;6.080;2022-12-18T04:50:06;3.85;;;2.17;;
9080;SDS011;13509;50.760;6.080;2022-12-18T04:52:34;5.03;;;3.47;;
9080;SDS011;13509;50.760;6.080;2022-12-18T04:55:02;4.57;;;2.58;;
9080;SDS011;13509;50.760;6.080;2022-12-18T04:57:30;3.50;;;2.42;;
9080;SDS011;13509;50.760;6.080;2022-12-18T04:59:58;3.80;;;2.40;;
9080;SDS011;13509;50.760;6.080;2022-12-18T05:02:27;4.20;;;2.80;;
9080;SDS011;13509;50.760;6.080;2022-12-18T05:04:55;3.58;;;2.17;;
9080;SDS011;13509;50.760;6.080;2022-12-18T05:07:24;4.18;;;2.50;;
9080;SDS011;13509;50.760;6.080;2022-12-18T05:09:53;4.50;;;2.45;;
9080;SDS011;13509;50.760;6.080;2022-12-18T05:12:21;4.45;;;2.40;;
9080;SDS011;13509;50.760;6.080;2022-12-18T05:14:49;4.47;;;2.47;;
9080;SDS011;13509;50.760;6.080;2022-12-18T05:17:17;4.25;;;2.83;;
9080;SDS011;13509;50.760;6.080;2022-12-18T05:19:45;5.70;;;2.80;;
9080;SDS011;13509;50.760;6.080;2022-12-18T05:22:14;4.85;;;2.95;;
9080;SDS011;13509;50.760;6.080;2022-12-18T05:24:44;4.90;;;2.50;;
9080;SDS011;13509;50.760;6.080;2022-12-18T05:27:12;4.35;;;3.08;;
9080;SDS011;13509;50.760;6.080;2022-12-18T05:29:40;6.22;;;3.17;;
9080;SDS011;13509;50.760;6.080;2022-12-18T05:32:08;6.65;;;3.13;;
9080;SDS011;13509;50.760;6.080;2022-12-18T05:34:36;5.55;;;3.25;;
9080;SDS011;13509;50.760;6.080;2022-12-18T05:37:04;6.68;;;3.67;;
9080;SDS011;13509;50.760;6.080;2022-12-18T05:39:32;6.03;;;3.35;;
9080;SDS011;13509;50.760;6.080;2022-12-18T05:42:02;5.75;;;3.22;;
9080;SDS011;13509;50.760;6.080;2022-12-18T05:44:30;8.38;;;3.70;;
9080;SDS011;13509;50.760;6.080;2022-12-18T05:46:58;5.82;;;3.50;;
9080;SDS011;13509;50.760;6.080;2022-12-18T05:49:27;9.95;;;3.60;;
9080;SDS011;13509;50.760;6.080;2022-12-18T05:51:55;5.60;;;3.25;;
9080;SDS011;13509;50.760;6.080;2022-12-18T05:54:23;6.40;;;3.00;;
9080;SDS011;13509;50.760;6.080;2022-12-18T05:56:51;4.85;;;3.00;;
9080;SDS011;13509;50.760;6.080;2022-12-18T05:59:29;5.00;;;2.70;;
9080;SDS011;13509;50.760;6.080;2022-12-18T06:01:57;4.40;;;3.17;;
9080;SDS011;13509;50.760;6.080;2022-12-18T06:04:26;5.93;;;3.80;;
9080;SDS011;13509;50.760;6.080;2022-12-18T06:06:55;9.20;;;3.63;;
9080;SDS011;13509;50.760;6.080;2022-12-18T06:09:23;6.85;;;3.50;;
9080;SDS011;13509;50.760;6.080;2022-12-18T06:11:52;5.25;;;3.33;;
9080;SDS011;13509;50.760;6.080;2022-12-18T06:14:21;6.05;;;3.05;;
9080;SDS011;13509;50.760;6.080;2022-12-18T06:16:50;5.57;;;3.40;;
9080;SDS011;13509;50.760;6.080;2022-12-18T06:19:18;8.55;;;3.53;;
9080;SDS011;13509;50.760;6.080;2022-12-18T06:21:46;7.53;;;3.67;;
9080;SDS011;13509;50.760;6.080;2022-12-18T06:24:15;8.15;;;3.88;;
9080;SDS011;13509;50.760;6.080;2022-12-18T06:26:43;8.98;;;3.92;;
9080;SDS011;13509;50.760;6.080;2022-12-18T06:29:11;5.75;;;3.30;;
9080;SDS011;13509;50.760;6.080;2022-12-18T06:31:41;5.70;;;3.53;;
9080;SDS011;13509;50.760;6.080;2022-12-18T06:34:09;6.97;;;3.80;;
9080;SDS011;13509;50.760;6.080;2022-12-18T06:36:37;6.47;;;3.85;;
9080;SDS011;13509;50.760;6.080;2022-12-18T06:39:05;7.88;;;3.78;;
9080;SDS011;13509;50.760;6.080;2022-12-18T06:41:34;5.72;;;3.55;;
9080;SDS011;13509;50.760;6.080;2022-12-18T06:44:02;7.43;;;3.80;;
9080;SDS011;13509;50.760;6.080;2022-12-18T06:46:31;5.63;;;3.45;;
9080;SDS011;13509;50.760;6.080;2022-12-18T06:49:01;8.77;;;3.55;;
9080;SDS011;13509;50.760;6.080;2022-12-18T06:51:29;5.15;;;3.25;;
9080;SDS011;13509;50.760;6.080;2022-12-18T06:53:57;8.00;;;4.13;;
9080;SDS011;13509;50.760;6.080;2022-12-18T06:56:26;8.73;;;3.75;;
9080;SDS011;13509;50.760;6.080;2022-12-18T06:58:54;5.78;;;3.97;;
9080;SDS011;13509;50.760;6.080;2022-12-18T07:01:22;5.40;;;3.97;;
9080;SDS011;13509;50.760;6.080;2022-12-18T07:03:51;12.10;;;4.47;;
9080;SDS011;13509;50.760;6.080;2022-12-18T07:06:22;8.18;;;3.78;;
9080;SDS011;13509;50.760;6.080;2022-12-18T07:08:51;8.88;;;4.50;;
9080;SDS011;13509;50.760;6.080;2022-12-18T07:11:19;8.07;;;4.20;;
9080;SDS011;13509;50.760;6.080;2022-12-18T07:13:47;10.88;;;4.75;;
9080;SDS011;13509;50.760;6.080;2022-12-18T07:16:16;7.13;;;4.18;;
9080;SDS011;13509;50.760;6.080;2022-12-18T07:18:50;7.47;;;4.65;;
9080;SDS011;13509;50.760;6.080;2022-12-18T07:21:19;10.27;;;4.55;;
9080;SDS011;13509;50.760;6.080;2022-12-18T07:23:48;8.50;;;4.43;;
9080;SDS011;13509;50.760;6.080;2022-12-18T07:26:17;10.52;;;5.15;;
9080;SDS011;13509;50.760;6.080;2022-12-18T07:28:46;8.13;;;4.90;;
9080;SDS011;13509;50.760;6.080;2022-12-18T07:31:15;10.25;;;4.90;;
9080;SDS011;13509;50.760;6.080;2022-12-18T07:33:44;7.57;;;4.28;;
9080;SDS011;13509;50.760;6.080;2022-12-18T07:36:12;7.18;;;4.55;;
9080;SDS011;13509;50.760;6.080;2022-12-18T07:38:41;9.02;;;5.38;;
9080;SDS011;13509;50.760;6.080;2022-12-18T07:41:11;7.72;;;4.40;;
9080;SDS011;13509;50.760;6.080;2022-12-18T07:43:40;9.77;;;4.70;;
9080;SDS011;13509;50.760;6.080;2022-12-18T07:46:09;8.57;;;4.57;;
9080;SDS011;13509;50.760;6.080;2022-12-18T07:48:39;7.95;;;4.70;;
9080;SDS011;13509;50.760;6.080;2022-12-18T07:51:10;8.25;;;4.43;;
9080;SDS011;13509;50.760;6.080;2022-12-18T07:53:40;9.98;;;4.63;;
9080;SDS011;13509;50.760;6.080;2022-12-18T07:56:11;8.25;;;4.70;;
9080;SDS011;13509;50.760;6.080;2022-12-18T07:58:56;8.13;;;4.85;;
9080;SDS011;13509;50.760;6.080;2022-12-18T08:01:25;8.38;;;5.07;;
9080;SDS011;13509;50.760;6.080;2022-12-18T08:03:54;7.15;;;4.50;;
9080;SDS011;13509;50.760;6.080;2022-12-18T08:06:22;7.90;;;4.20;;
9080;SDS011;13509;50.760;6.080;2022-12-18T08:08:50;9.20;;;4.35;;
9080;SDS011;13509;50.760;6.080;2022-12-18T08:11:21;7.40;;;4.60;;
9080;SDS011;13509;50.760;6.080;2022-12-18T08:13:49;8.52;;;4.30;;
9080;SDS011;13509;50.760;6.080;2022-12-18T08:16:18;7.47;;;4.35;;
9080;SDS011;13509;50.760;6.080;2022-12-18T08:18:46;7.28;;;4.38;;
9080;SDS011;13509;50.760;6.080;2022-12-18T08:21:15;6.25;;;4.25;;
9080;SDS011;13509;50.760;6.080;2022-12-18T08:23:46;7.72;;;4.13;;
9080;SDS011;13509;50.760;6.080;2022-12-18T08:26:16;6.90;;;4.53;;
9080;SDS011;13509;50.760;6.080;2022-12-18T08:28:46;7.47;;;4.20;;
9080;SDS011;13509;50.760;6.080;2022-12-18T08:31:15;7.50;;;4.10;;
9080;SDS011;13509;50.760;6.080;2022-12-18T08:33:43;5.77;;;3.83;;
9080;SDS011;13509;50.760;6.080;2022-12-18T08:36:12;8.13;;;4.30;;
9080;SDS011;13509;50.760;6.080;2022-12-18T08:38:40;7.07;;;4.37;;
9080;SDS011;13509;50.760;6.080;2022-12-18T08:41:09;11.37;;;4.50;;
9080;SDS011;13509;50.760;6.080;2022-12-18T08:43:38;9.97;;;4.70;;
9080;SDS011;13509;50.760;6.080;2022-12-18T08:46:26;7.57;;;4.87;;
9080;SDS011;13509;50.760;6.080;2022-12-18T08:48:54;6.90;;;4.10;;
9080;SDS011;13509;50.760;6.080;2022-12-18T08:51:23;6.73;;;4.37;;
9080;SDS011;13509;50.760;6.080;2022-12-18T08:53:51;5.77;;;4.03;;
9080;SDS011;13509;50.760;6.080;2022-12-18T08:56:19;7.40;;;4.73;;
9080;SDS011;13509;50.760;6.080;2022-12-18T08:58:47;6.80;;;4.37;;
9080;SDS011;13509;50.760;6.080;2022-12-18T09:01:18;6.63;;;4.17;;
9080;SDS011;13509;50.760;6.080;2022-12-18T09:03:48;6.90;;;4.00;;
9080;SDS011;13509;50.760;6.080;2022-12-18T09:06:17;7.67;;;4.77;;
9080;SDS011;13509;50.760;6.080;2022-12-18T09:08:45;7.27;;;4.77;;
9080;SDS011;13509;50.760;6.080;2022-12-18T09:11:13;8.47;;;4.97;;
9080;SDS011;13509;50.760;6.080;2022-12-18T09:13:42;10.97;;;5.73;;
9080;SDS011;13509;50.760;6.080;2022-12-18T09:16:10;10.93;;;5.90;;
9080;SDS011;13509;50.760;6.080;2022-12-18T09:18:38;6.97;;;4.70;;
9080;SDS011;13509;50.760;6.080;2022-12-18T09:21:10;10.17;;;5.60;;
9080;SDS011;13509;50.760;6.080;2022-12-18T09:23:38;10.07;;;5.67;;
9080;SDS011;13509;50.760;6.080;2022-12-18T09:26:06;11.13;;;5.83;;
9080;SDS011;13509;50.760;6.080;2022-12-18T09:28:34;11.37;;;5.47;;
9080;SDS011;13509;50.760;6.080;2022-12-18T09:31:04;11.43;;;6.00;;
9080;SDS011;13509;50.760;6.080;2022-12-18T09:33:33;11.77;;;6.17;;
9080;SDS011;13509;50.760;6.080;2022-12-18T09:36:02;9.90;;;6.47;;
9080;SDS011;13509;50.760;6.080;2022-12-18T09:38:32;10.77;;;6.23;;
9080;SDS011;13509;50.760;6.080;2022-12-18T09:41:01;10.57;;;6.20;;
9080;SDS011;13509;50.760;6.080;2022-12-18T09:43:34;9.80;;;5.97;;
9080;SDS011;13509;50.760;6.080;2022-12-18T09:46:04;10.13;;;5.90;;
9080;SDS011;13509;50.760;6.080;2022-12-18T09:48:35;11.77;;;6.53;;
9080;SDS011;13509;50.760;6.080;2022-12-18T09:51:05;11.93;;;7.17;;
9080;SDS011;13509;50.760;6.080;2022-12-18T09:53:40;13.43;;;6.57;;
9080;SDS011;13509;50.760;6.080;2022-12-18T09:56:10;13.60;;;7.00;;
9080;SDS011;13509;50.760;6.080;2022-12-18T09:58:41;11.83;;;7.00;;
9080;SDS011;13509;50.760;6.080;2022-12-18T10:01:12;13.53;;;7.73;;
9080;SDS011;13509;50.760;6.080;2022-12-18T10:03:42;12.43;;;7.37;;
9080;SDS011;13509;50.760;6.080;2022-12-18T10:06:11;13.40;;;7.40;;
9080;SDS011;13509;50.760;6.080;2022-12-18T10:08:43;16.40;;;7.87;;
9080;SDS011;13509;50.760;6.080;2022-12-18T10:11:29;14.63;;;7.90;;
9080;SDS011;13509;50.760;6.080;2022-12-18T10:14:00;13.50;;;7.67;;
9080;SDS011;13509;50.760;6.080;2022-12-18T10:16:33;13.63;;;7.93;;
9080;SDS011;13509;50.760;6.080;2022-12-18T10:19:08;14.97;;;7.70;;
9080;SDS011;13509;50.760;6.080;2022-12-18T10:21:38;14.07;;;8.23;;
9080;SDS011;13509;50.760;6.080;2022-12-18T10:24:13;14.50;;;8.33;;
9080;SDS011;13509;50.760;6.080;2022-12-18T10:26:42;14.27;;;8.23;;
9080;SDS011;13509;50.760;6.080;2022-12-18T10:29:12;13.20;;;7.57;;
9080;SDS011;13509;50.760;6.080;2022-12-18T10:31:40;15.93;;;8.13;;
9080;SDS011;13509;50.760;6.080;2022-12-18T10:34:09;16.80;;;8.17;;
9080;SDS011;13509;50.760;6.080;2022-12-18T10:36:37;19.70;;;8.97;;
9080;SDS011;13509;50.760;6.080;2022-12-18T10:39:17;13.37;;;8.13;;
9080;SDS011;13509;50.760;6.080;2022-12-18T10:41:46;15.47;;;7.93;;
9080;SDS011;13509;50.760;6.080;2022-12-18T10:44:16;15.87;;;8.90;;
9080;SDS011;13509;50.760;6.080;2022-12-18T10:46:45;15.33;;;8.67;;
9080;SDS011;13509;50.760;6.080;2022-12-18T10:49:21;15.60;;;8.47;;
9080;SDS011;13509;50.760;6.080;2022-12-18T10:51:49;15.87;;;8.30;;
9080;SDS011;13509;50.760;6.080;2022-12-18T10:54:21;15.90;;;8.63;;
9080;SDS011;13509;50.760;6.080;2022-12-18T10:56:49;18.43;;;9.57;;
9080;SDS011;13509;50.760;6.080;2022-12-18T10:59:18;18.30;;;9.60;;
9080;SDS011;13509;50.760;6.080;2022-12-18T11:01:47;17.90;;;9.33;;
9080;SDS011;13509;50.760;6.080;2022-12-18T11:04:17;16.37;;;10.07;;
9080;SDS011;13509;50.760;6.080;2022-12-18T11:06:56;18.60;;;10.23;;
9080;SDS011;13509;50.760;6.080;2022-12-18T11:09:26;19.10;;;10.20;;
9080;SDS011;13509;50.760;6.080;2022-12-18T11:11:56;16.70;;;10.47;;
9080;SDS011;13509;50.760;6.080;2022-12-18T11:14:26;17.30;;;10.10;;
9080;SDS011;13509;50.760;6.080;2022-12-18T11:16:55;19.53;;;10.90;;
9080;SDS011;13509;50.760;6.080;2022-12-18T11:19:43;19.67;;;10.00;;
9080;SDS011;13509;50.760;6.080;2022-12-18T11:22:18;17.33;;;9.30;;
9080;SDS011;13509;50.760;6.080;2022-12-18T11:24:53;18.17;;;10.27;;
9080;SDS011;13509;50.760;6.080;2022-12-18T11:27:46;20.80;;;10.80;;
9080;SDS011;13509;50.760;6.080;2022-12-18T11:30:20;18.83;;;10.03;;
9080;SDS011;13509;50.760;6.080;2022-12-18T11:32:54;19.73;;;10.50;;
9080;SDS011;13509;50.760;6.080;2022-12-18T11:35:34;18.47;;;10.47;;
9080;SDS011;13509;50.760;6.080;2022-12-18T11:38:12;16.73;;;9.33;;
9080;SDS011;13509;50.760;6.080;2022-12-18T11:40:49;16.70;;;9.50;;
9080;SDS011;13509;50.760;6.080;2022-12-18T11:43:26;21.07;;;10.67;;
9080;SDS011;13509;50.760;6.080;2022-12-18T11:46:01;17.77;;;10.50;;
9080;SDS011;13509;50.760;6.080;2022-12-18T11:48:36;18.27;;;9.87;;
9080;SDS011;13509;50.760;6.080;2022-12-18T11:51:12;20.83;;;10.20;;
9080;SDS011;13509;50.760;6.080;2022-12-18T11:53:53;23.07;;;10.93;;
9080;SDS011;13509;50.760;6.080;2022-12-18T11:56:29;20.67;;;11.50;;
9080;SDS011;13509;50.760;6.080;2022-12-18T11:59:05;20.10;;;11.03;;
9080;SDS011;13509;50.760;6.080;2022-12-18T12:01:44;18.87;;;10.77;;
9080;SDS011;13509;50.760;6.080;2022-12-18T12:04:37;18.70;;;10.27;;
9080;SDS011;13509;50.760;6.080;2022-12-18T12:07:15;18.93;;;11.10;;
9080;SDS011;13509;50.760;6.080;2022-12-18T12:09:52;16.07;;;10.17;;
9080;SDS011;13509;50.760;6.080;2022-12-18T12:12:27;18.27;;;9.97;;
9080;SDS011;13509;50.760;6.080;2022-12-18T12:15:17;19.73;;;10.87;;
9080;SDS011;13509;50.760;6.080;2022-12-18T12:17:49;19.00;;;10.03;;
9080;SDS011;13509;50.760;6.080;2022-12-18T12:20:20;17.77;;;10.47;;
9080;SDS011;13509;50.760;6.080;2022-12-18T12:22:52;17.80;;;10.10;;
9080;SDS011;13509;50.760;6.080;2022-12-18T12:25:33;20.97;;;10.17;;
9080;SDS011;13509;50.760;6.080;2022-12-18T12:28:12;18.13;;;10.30;;
9080;SDS011;13509;50.760;6.080;2022-12-18T12:30:44;21.10;;;10.93;;
9080;SDS011;13509;50.760;6.080;2022-12-18T12:33:20;17.87;;;10.50;;
9080;SDS011;13509;50.760;6.080;2022-12-18T12:35:56;20.90;;;10.50;;
9080;SDS011;13509;50.760;6.080;2022-12-18T12:38:28;21.53;;;11.40;;
9080;SDS011;13509;50.760;6.080;2022-12-18T12:40:58;18.47;;;10.33;;
9080;SDS011;13509;50.760;6.080;2022-12-18T12:43:33;22.00;;;10.57;;
9080;SDS011;13509;50.760;6.080;2022-12-18T12:46:03;20.23;;;10.70;;
9080;SDS011;13509;50.760;6.080;2022-12-18T12:48:35;21.43;;;11.93;;
9080;SDS011;13509;50.760;6.080;2022-12-18T12:51:07;19.67;;;10.70;;
9080;SDS011;13509;50.760;6.080;2022-12-18T12:53:37;22.73;;;11.37;;
9080;SDS011;13509;50.760;6.080;2022-12-18T12:56:08;22.50;;;11.67;;
9080;SDS011;13509;50.760;6.080;2022-12-18T12:58:41;20.80;;;12.13;;
9080;SDS011;13509;50.760;6.080;2022-12-18T13:01:16;19.10;;;10.07;;
9080;SDS011;13509;50.760;6.080;2022-12-18T13:03:54;18.60;;;10.50;;
9080;SDS011;13509;50.760;6.080;2022-12-18T13:06:27;17.43;;;10.20;;
9080;SDS011;13509;50.760;6.080;2022-12-18T13:08:58;20.10;;;10.40;;
9080;SDS011;13509;50.760;6.080;2022-12-18T13:11:30;20.00;;;10.87;;
9080;SDS011;13509;50.760;6.080;2022-12-18T13:14:28;20.10;;;11.10;;
9080;SDS011;13509;50.760;6.080;2022-12-18T13:19:48;19.10;;;11.07;;
9080;SDS011;13509;50.760;6.080;2022-12-18T13:22:20;17.17;;;9.23;;
9080;SDS011;13509;50.760;6.080;2022-12-18T13:24:49;18.80;;;10.53;;
9080;SDS011;13509;50.760;6.080;2022-12-18T13:30:16;18.00;;;10.40;;
9080;SDS011;13509;50.760;6.080;2022-12-18T13:33:30;15.00;;;9.20;;
9080;SDS011;13509;50.760;6.080;2022-12-18T13:36:26;14.00;;;9.13;;
9080;SDS011;13509;50.760;6.080;2022-12-18T13:41:52;13.37;;;8.50;;
9080;SDS011;13509;50.760;6.080;2022-12-18T13:44:24;19.73;;;9.53;;
9080;SDS011;13509;50.760;6.080;2022-12-18T13:46:54;14.60;;;9.00;;
9080;SDS011;13509;50.760;6.080;2022-12-18T13:49:23;19.07;;;10.10;;
9080;SDS011;13509;50.760;6.080;2022-12-18T13:51:52;17.30;;;9.80;;
9080;SDS011;13509;50.760;6.080;2022-12-18T13:54:22;17.47;;;8.57;;
9080;SDS011;13509;50.760;6.080;2022-12-18T13:56:51;17.97;;;9.57;;
9080;SDS011;13509;50.760;6.080;2022-12-18T13:59:21;15.00;;;8.30;;
9080;SDS011;13509;50.760;6.080;2022-12-18T14:01:51;16.10;;;9.23;;
9080;SDS011;13509;50.760;6.080;2022-12-18T14:04:28;17.80;;;9.00;;
9080;SDS011;13509;50.760;6.080;2022-12-18T14:06:57;15.30;;;8.10;;
9080;SDS011;13509;50.760;6.080;2022-12-18T14:09:27;14.33;;;7.73;;
9080;SDS011;13509;50.760;6.080;2022-12-18T14:11:57;11.73;;;7.23;;
9080;SDS011;13509;50.760;6.080;2022-12-18T14:14:41;13.33;;;7.67;;
9080;SDS011;13509;50.760;6.080;2022-12-18T14:17:11;12.80;;;7.73;;
9080;SDS011;13509;50.760;6.080;2022-12-18T14:19:42;16.03;;;7.10;;
9080;SDS011;13509;50.760;6.080;2022-12-18T14:22:15;13.47;;;7.77;;
9080;SDS011;13509;50.760;6.080;2022-12-18T14:24:44;11.47;;;7.03;;
9080;SDS011;13509;50.760;6.080;2022-12-18T14:27:17;13.60;;;8.07;;
9080;SDS011;13509;50.760;6.080;2022-12-18T14:29:47;14.43;;;8.53;;
9080;SDS011;13509;50.760;6.080;2022-12-18T14:32:15;17.47;;;8.87;;
9080;SDS011;13509;50.760;6.080;2022-12-18T14:34:46;12.93;;;7.97;;
9080;SDS011;13509;50.760;6.080;2022-12-18T14:37:15;16.50;;;8.20;;
9080;SDS011;13509;50.760;6.080;2022-12-18T14:39:54;15.87;;;8.57;;
9080;SDS011;13509;50.760;6.080;2022-12-18T14:42:23;15.17;;;8.33;;
9080;SDS011;13509;50.760;6.080;2022-12-18T14:47:42;17.40;;;8.07;;
9080;SDS011;13509;50.760;6.080;2022-12-18T14:50:13;14.30;;;8.00;;
9080;SDS011;13509;50.760;6.080;2022-12-18T14:52:42;17.73;;;9.90;;
9080;SDS011;13509;50.760;6.080;2022-12-18T14:55:14;14.93;;;8.87;;
9080;SDS011;13509;50.760;6.080;2022-12-18T14:57:42;20.47;;;10.77;;
9080;SDS011;13509;50.760;6.080;2022-12-18T15:00:14;23.00;;;11.23;;
9080;SDS011;13509;50.760;6.080;2022-12-18T15:02:43;18.33;;;9.90;;
9080;SDS011;13509;50.760;6.080;2022-12-18T15:05:18;17.87;;;9.87;;
9080;SDS011;13509;50.760;6.080;2022-12-18T15:07:48;14.37;;;7.50;;
9080;SDS011;13509;50.760;6.080;2022-12-18T15:10:17;14.33;;;8.70;;
9080;SDS011;13509;50.760;6.080;2022-12-18T15:12:46;14.73;;;8.57;;
9080;SDS011;13509;50.760;6.080;2022-12-18T15:18:03;11.00;;;5.73;;
9080;SDS011;13509;50.760;6.080;2022-12-18T15:20:39;10.83;;;6.20;;
9080;SDS011;13509;50.760;6.080;2022-12-18T15:23:12;12.40;;;6.60;;
9080;SDS011;13509;50.760;6.080;2022-12-18T15:25:40;10.53;;;5.93;;
9080;SDS011;13509;50.760;6.080;2022-12-18T15:28:15;10.43;;;5.80;;
9080;SDS011;13509;50.760;6.080;2022-12-18T15:30:57;10.10;;;5.53;;
9080;SDS011;13509;50.760;6.080;2022-12-18T15:33:26;8.60;;;4.97;;